sensor_id;sensor_type;location;lat;lon;timestamp;P1;durP1;ratioP1;P2;durP2;ratioP2
56593;SDS011;42474;51.660;5.824;2023-02-15T00:03:18;26.5;;;15.4;;
56593;SDS011;42474;51.660;5.824;2023-02-15T00:08:18;27.1;;;15.2;;
56593;SDS011;42474;51.660;5.824;2023-02-15T00:13:18;29.0;;;15.1;;
56593;SDS011;42474;51.660;5.824;2023-02-15T00:18:18;22.7;;;14.3;;
56593;SDS011;42474;51.660;5.824;2023-02-15T00:23:18;25.4;;;14.7;;
56593;SDS011;42474;51.660;5.824;2023-02-15T00:28:18;31.6;;;16.3;;
56593;SDS011;42474;51.660;5.824;2023-02-15T00:33:18;26.8;;;15.1;;
56593;SDS011;42474;51.660;5.824;2023-02-15T00:38:18;24.9;;;15.3;;
56593;SDS011;42474;51.660;5.824;2023-02-15T00:43:18;27.7;;;15.2;;
56593;SDS011;42474;51.660;5.824;2023-02-15T00:48:18;28.3;;;16.0;;
56593;SDS011;42474;51.660;5.824;2023-02-15T00:53:18;27.4;;;14.9;;
56593;SDS011;42474;51.660;5.824;2023-02-15T00:58:18;26.6;;;15.1;;
56593;SDS011;42474;51.660;5.824;2023-02-15T01:03:19;27.4;;;14.7;;
56593;SDS011;42474;51.660;5.824;2023-02-15T01:08:18;29.4;;;16.1;;
56593;SDS011;42474;51.660;5.824;2023-02-15T01:13:18;25.7;;;15.1;;
56593;SDS011;42474;51.660;5.824;2023-02-15T01:18:18;26.6;;;15.1;;
56593;SDS011;42474;51.660;5.824;2023-02-15T01:23:18;25.7;;;15.0;;
56593;SDS011;42474;51.660;5.824;2023-02-15T01:28:18;25.2;;;15.2;;
56593;SDS011;42474;51.660;5.824;2023-02-15T01:33:18;25.8;;;14.4;;
56593;SDS011;42474;51.660;5.824;2023-02-15T01:38:18;27.5;;;15.4;;
56593;SDS011;42474;51.660;5.824;2023-02-15T01:48:27;26.6;;;15.2;;
56593;SDS011;42474;51.660;5.824;2023-02-15T01:53:19;23.9;;;13.8;;
56593;SDS011;42474;51.660;5.824;2023-02-15T01:58:18;23.3;;;14.5;;
56593;SDS011;42474;51.660;5.824;2023-02-15T02:03:18;23.3;;;14.1;;
56593;SDS011;42474;51.660;5.824;2023-02-15T02:08:18;26.7;;;14.6;;
56593;SDS011;42474;51.660;5.824;2023-02-15T02:13:18;25.4;;;14.5;;
56593;SDS011;42474;51.660;5.824;2023-02-15T02:19:04;27.4;;;15.4;;
56593;SDS011;42474;51.660;5.824;2023-02-15T02:25:52;27.0;;;15.5;;
56593;SDS011;42474;51.660;5.824;2023-02-15T02:33:07;27.4;;;14.4;;
56593;SDS011;42474;51.660;5.824;2023-02-15T02:37:28;24.6;;;13.8;;
56593;SDS011;42474;51.660;5.824;2023-02-15T02:42:38;28.4;;;15.3;;
56593;SDS011;42474;51.660;5.824;2023-02-15T02:46:30;24.0;;;14.0;;
56593;SDS011;42474;51.660;5.824;2023-02-15T02:48:40;26.7;;;14.9;;
56593;SDS011;42474;51.660;5.824;2023-02-15T02:53:18;27.4;;;15.1;;
56593;SDS011;42474;51.660;5.824;2023-02-15T02:58:21;25.2;;;14.1;;
56593;SDS011;42474;51.660;5.824;2023-02-15T03:03:22;28.5;;;14.7;;
56593;SDS011;42474;51.660;5.824;2023-02-15T03:08:20;27.2;;;15.1;;
56593;SDS011;42474;51.660;5.824;2023-02-15T03:13:18;27.6;;;14.6;;
56593;SDS011;42474;51.660;5.824;2023-02-15T03:18:18;23.8;;;14.2;;
56593;SDS011;42474;51.660;5.824;2023-02-15T03:23:18;26.6;;;14.7;;
56593;SDS011;42474;51.660;5.824;2023-02-15T03:28:19;28.9;;;13.9;;
56593;SDS011;42474;51.660;5.824;2023-02-15T03:33:18;24.1;;;13.8;;
56593;SDS011;42474;51.660;5.824;2023-02-15T03:38:21;26.0;;;14.7;;
56593;SDS011;42474;51.660;5.824;2023-02-15T03:43:23;24.2;;;13.5;;
56593;SDS011;42474;51.660;5.824;2023-02-15T03:48:19;20.5;;;12.0;;
56593;SDS011;42474;51.660;5.824;2023-02-15T03:53:18;23.0;;;12.8;;
56593;SDS011;42474;51.660;5.824;2023-02-15T03:58:18;27.6;;;14.1;;
56593;SDS011;42474;51.660;5.824;2023-02-15T04:03:38;24.0;;;13.6;;
56593;SDS011;42474;51.660;5.824;2023-02-15T04:08:18;23.7;;;13.5;;
56593;SDS011;42474;51.660;5.824;2023-02-15T04:13:18;24.5;;;13.2;;
56593;SDS011;42474;51.660;5.824;2023-02-15T04:18:18;24.8;;;13.7;;
56593;SDS011;42474;51.660;5.824;2023-02-15T04:23:18;25.1;;;14.5;;
56593;SDS011;42474;51.660;5.824;2023-02-15T04:28:18;26.7;;;14.9;;
56593;SDS011;42474;51.660;5.824;2023-02-15T04:33:18;27.9;;;14.8;;
56593;SDS011;42474;51.660;5.824;2023-02-15T04:38:18;26.7;;;14.6;;
56593;SDS011;42474;51.660;5.824;2023-02-15T04:43:18;26.6;;;13.9;;
56593;SDS011;42474;51.660;5.824;2023-02-15T04:48:18;26.6;;;13.7;;
56593;SDS011;42474;51.660;5.824;2023-02-15T04:53:18;26.2;;;13.6;;
56593;SDS011;42474;51.660;5.824;2023-02-15T04:58:18;27.4;;;14.5;;
56593;SDS011;42474;51.660;5.824;2023-02-15T05:03:18;28.6;;;14.7;;
56593;SDS011;42474;51.660;5.824;2023-02-15T05:08:18;28.0;;;14.9;;
56593;SDS011;42474;51.660;5.824;2023-02-15T05:13:18;26.6;;;14.3;;
56593;SDS011;42474;51.660;5.824;2023-02-15T05:18:18;27.3;;;15.0;;
56593;SDS011;42474;51.660;5.824;2023-02-15T05:23:18;30.3;;;15.3;;
56593;SDS011;42474;51.660;5.824;2023-02-15T05:28:18;34.2;;;17.4;;
56593;SDS011;42474;51.660;5.824;2023-02-15T05:33:18;28.9;;;15.5;;
56593;SDS011;42474;51.660;5.824;2023-02-15T05:38:18;32.3;;;15.3;;
56593;SDS011;42474;51.660;5.824;2023-02-15T05:43:18;32.0;;;15.8;;
56593;SDS011;42474;51.660;5.824;2023-02-15T05:48:20;28.5;;;15.1;;
56593;SDS011;42474;51.660;5.824;2023-02-15T05:53:18;30.6;;;15.8;;
56593;SDS011;42474;51.660;5.824;2023-02-15T05:58:18;32.6;;;15.9;;
56593;SDS011;42474;51.660;5.824;2023-02-15T06:03:18;31.2;;;16.8;;
56593;SDS011;42474;51.660;5.824;2023-02-15T06:08:18;31.5;;;16.0;;
56593;SDS011;42474;51.660;5.824;2023-02-15T06:13:18;33.7;;;16.7;;
56593;SDS011;42474;51.660;5.824;2023-02-15T06:18:18;30.8;;;16.4;;
56593;SDS011;42474;51.660;5.824;2023-02-15T06:23:18;32.1;;;16.1;;
56593;SDS011;42474;51.660;5.824;2023-02-15T06:28:18;33.0;;;15.8;;
56593;SDS011;42474;51.660;5.824;2023-02-15T06:33:18;31.8;;;15.8;;
56593;SDS011;42474;51.660;5.824;2023-02-15T06:38:18;28.3;;;13.9;;
56593;SDS011;42474;51.660;5.824;2023-02-15T06:43:18;32.2;;;13.8;;
56593;SDS011;42474;51.660;5.824;2023-02-15T06:48:18;31.4;;;14.5;;
56593;SDS011;42474;51.660;5.824;2023-02-15T06:53:18;27.1;;;13.3;;
56593;SDS011;42474;51.660;5.824;2023-02-15T06:58:18;28.2;;;13.3;;
56593;SDS011;42474;51.660;5.824;2023-02-15T07:03:18;30.4;;;13.7;;
56593;SDS011;42474;51.660;5.824;2023-02-15T07:08:18;26.2;;;13.5;;
56593;SDS011;42474;51.660;5.824;2023-02-15T07:13:18;31.0;;;14.3;;
56593;SDS011;42474;51.660;5.824;2023-02-15T07:18:18;31.1;;;14.6;;
56593;SDS011;42474;51.660;5.824;2023-02-15T07:28:18;30.8;;;14.2;;
56593;SDS011;42474;51.660;5.824;2023-02-15T07:33:18;31.7;;;14.2;;
56593;SDS011;42474;51.660;5.824;2023-02-15T07:38:18;33.4;;;14.9;;
56593;SDS011;42474;51.660;5.824;2023-02-15T07:43:18;34.2;;;16.7;;
56593;SDS011;42474;51.660;5.824;2023-02-15T07:48:18;29.4;;;14.9;;
56593;SDS011;42474;51.660;5.824;2023-02-15T07:53:18;33.3;;;15.3;;
56593;SDS011;42474;51.660;5.824;2023-02-15T07:58:18;36.9;;;16.1;;
56593;SDS011;42474;51.660;5.824;2023-02-15T08:03:18;34.4;;;15.8;;
56593;SDS011;42474;51.660;5.824;2023-02-15T08:08:18;34.8;;;15.8;;
56593;SDS011;42474;51.660;5.824;2023-02-15T08:13:18;37.9;;;16.0;;
56593;SDS011;42474;51.660;5.824;2023-02-15T08:18:18;33.8;;;15.7;;
56593;SDS011;42474;51.660;5.824;2023-02-15T08:23:18;30.5;;;14.0;;
56593;SDS011;42474;51.660;5.824;2023-02-15T08:28:18;33.4;;;15.7;;
56593;SDS011;42474;51.660;5.824;2023-02-15T08:33:18;33.8;;;14.9;;
56593;SDS011;42474;51.660;5.824;2023-02-15T08:38:18;36.3;;;15.5;;
56593;SDS011;42474;51.660;5.824;2023-02-15T08:43:18;32.7;;;15.4;;
56593;SDS011;42474;51.660;5.824;2023-02-15T08:58:18;35.0;;;16.7;;
56593;SDS011;42474;51.660;5.824;2023-02-15T09:03:18;36.0;;;16.7;;
56593;SDS011;42474;51.660;5.824;2023-02-15T09:08:18;34.1;;;16.2;;
56593;SDS011;42474;51.660;5.824;2023-02-15T09:13:18;35.6;;;16.7;;
56593;SDS011;42474;51.660;5.824;2023-02-15T09:18:18;32.6;;;15.9;;
56593;SDS011;42474;51.660;5.824;2023-02-15T09:23:18;34.2;;;17.0;;
56593;SDS011;42474;51.660;5.824;2023-02-15T09:28:18;37.2;;;16.6;;
56593;SDS011;42474;51.660;5.824;2023-02-15T09:33:18;35.2;;;17.4;;
56593;SDS011;42474;51.660;5.824;2023-02-15T09:38:18;34.5;;;16.5;;
56593;SDS011;42474;51.660;5.824;2023-02-15T09:44:04;30.3;;;16.1;;
56593;SDS011;42474;51.660;5.824;2023-02-15T09:49:44;32.9;;;16.4;;
56593;SDS011;42474;51.660;5.824;2023-02-15T09:55:33;30.2;;;16.2;;
56593;SDS011;42474;51.660;5.824;2023-02-15T10:01:13;31.1;;;16.1;;
56593;SDS011;42474;51.660;5.824;2023-02-15T10:07:09;33.8;;;16.5;;
56593;SDS011;42474;51.660;5.824;2023-02-15T10:13:28;30.9;;;15.8;;
56593;SDS011;42474;51.660;5.824;2023-02-15T10:19:52;32.8;;;15.6;;
56593;SDS011;42474;51.660;5.824;2023-02-15T10:25:50;31.7;;;15.1;;
56593;SDS011;42474;51.660;5.824;2023-02-15T10:27:36;29.6;;;15.8;;
56593;SDS011;42474;51.660;5.824;2023-02-15T10:28:20;31.7;;;15.3;;
56593;SDS011;42474;51.660;5.824;2023-02-15T10:33:20;34.2;;;16.2;;
56593;SDS011;42474;51.660;5.824;2023-02-15T10:38:46;30.1;;;15.3;;
56593;SDS011;42474;51.660;5.824;2023-02-15T10:45:13;32.3;;;16.7;;
56593;SDS011;42474;51.660;5.824;2023-02-15T10:50:52;28.3;;;16.4;;
56593;SDS011;42474;51.660;5.824;2023-02-15T10:55:58;29.2;;;16.1;;
56593;SDS011;42474;51.660;5.824;2023-02-15T11:01:19;28.9;;;16.4;;
56593;SDS011;42474;51.660;5.824;2023-02-15T11:06:21;29.4;;;16.6;;
56593;SDS011;42474;51.660;5.824;2023-02-15T11:08:18;27.9;;;16.0;;
56593;SDS011;42474;51.660;5.824;2023-02-15T11:13:19;27.1;;;15.8;;
56593;SDS011;42474;51.660;5.824;2023-02-15T11:18:19;27.8;;;16.6;;
56593;SDS011;42474;51.660;5.824;2023-02-15T11:23:18;26.0;;;16.7;;
56593;SDS011;42474;51.660;5.824;2023-02-15T11:28:25;28.2;;;16.7;;
56593;SDS011;42474;51.660;5.824;2023-02-15T11:33:20;27.5;;;16.2;;
56593;SDS011;42474;51.660;5.824;2023-02-15T11:38:20;26.0;;;16.1;;
56593;SDS011;42474;51.660;5.824;2023-02-15T11:43:23;28.4;;;16.5;;
56593;SDS011;42474;51.660;5.824;2023-02-15T11:48:18;29.9;;;16.1;;
56593;SDS011;42474;51.660;5.824;2023-02-15T11:53:18;28.7;;;16.1;;
56593;SDS011;42474;51.660;5.824;2023-02-15T11:58:37;25.6;;;16.0;;
56593;SDS011;42474;51.660;5.824;2023-02-15T12:03:29;25.2;;;15.0;;
56593;SDS011;42474;51.660;5.824;2023-02-15T12:08:19;29.2;;;15.7;;
56593;SDS011;42474;51.660;5.824;2023-02-15T12:13:20;28.5;;;15.4;;
56593;SDS011;42474;51.660;5.824;2023-02-15T12:18:21;27.8;;;15.3;;
56593;SDS011;42474;51.660;5.824;2023-02-15T12:23:18;26.3;;;15.5;;
56593;SDS011;42474;51.660;5.824;2023-02-15T12:28:25;27.1;;;15.6;;
56593;SDS011;42474;51.660;5.824;2023-02-15T12:33:21;29.1;;;14.9;;
56593;SDS011;42474;51.660;5.824;2023-02-15T12:38:27;27.7;;;16.4;;
56593;SDS011;42474;51.660;5.824;2023-02-15T12:43:25;25.6;;;15.3;;
56593;SDS011;42474;51.660;5.824;2023-02-15T12:48:19;25.0;;;14.8;;
56593;SDS011;42474;51.660;5.824;2023-02-15T12:53:34;26.7;;;14.8;;
56593;SDS011;42474;51.660;5.824;2023-02-15T12:58:22;25.5;;;15.5;;
56593;SDS011;42474;51.660;5.824;2023-02-15T13:03:23;26.7;;;16.0;;
56593;SDS011;42474;51.660;5.824;2023-02-15T13:08:19;23.4;;;15.7;;
56593;SDS011;42474;51.660;5.824;2023-02-15T13:13:19;26.0;;;15.8;;
56593;SDS011;42474;51.660;5.824;2023-02-15T13:18:19;26.6;;;16.8;;
56593;SDS011;42474;51.660;5.824;2023-02-15T13:23:29;25.8;;;15.4;;
56593;SDS011;42474;51.660;5.824;2023-02-15T13:28:19;25.4;;;15.8;;
56593;SDS011;42474;51.660;5.824;2023-02-15T13:33:30;25.5;;;15.3;;
56593;SDS011;42474;51.660;5.824;2023-02-15T13:38:57;30.2;;;15.9;;
56593;SDS011;42474;51.660;5.824;2023-02-15T13:43:44;27.2;;;16.0;;
56593;SDS011;42474;51.660;5.824;2023-02-15T13:49:43;25.1;;;15.7;;
56593;SDS011;42474;51.660;5.824;2023-02-15T13:55:25;23.8;;;15.6;;
56593;SDS011;42474;51.660;5.824;2023-02-15T14:01:03;26.7;;;15.4;;
56593;SDS011;42474;51.660;5.824;2023-02-15T14:07:16;25.8;;;15.9;;
56593;SDS011;42474;51.660;5.824;2023-02-15T14:12:55;24.2;;;15.4;;
56593;SDS011;42474;51.660;5.824;2023-02-15T14:18:16;25.5;;;16.4;;
56593;SDS011;42474;51.660;5.824;2023-02-15T14:22:35;24.5;;;15.7;;
56593;SDS011;42474;51.660;5.824;2023-02-15T14:27:37;23.8;;;15.9;;
56593;SDS011;42474;51.660;5.824;2023-02-15T14:30:54;29.5;;;16.9;;
56593;SDS011;42474;51.660;5.824;2023-02-15T14:33:31;27.7;;;17.6;;
56593;SDS011;42474;51.660;5.824;2023-02-15T14:38:48;27.2;;;17.2;;
56593;SDS011;42474;51.660;5.824;2023-02-15T14:44:04;29.4;;;17.0;;
56593;SDS011;42474;51.660;5.824;2023-02-15T14:48:28;28.4;;;17.5;;
56593;SDS011;42474;51.660;5.824;2023-02-15T14:53:38;29.8;;;17.1;;
56593;SDS011;42474;51.660;5.824;2023-02-15T14:58:18;27.5;;;17.1;;
56593;SDS011;42474;51.660;5.824;2023-02-15T15:03:23;27.4;;;16.6;;
56593;SDS011;42474;51.660;5.824;2023-02-15T15:08:22;25.4;;;15.5;;
56593;SDS011;42474;51.660;5.824;2023-02-15T15:13:58;24.4;;;15.8;;
56593;SDS011;42474;51.660;5.824;2023-02-15T15:18:46;24.5;;;15.2;;
56593;SDS011;42474;51.660;5.824;2023-02-15T15:23:43;28.9;;;16.7;;
56593;SDS011;42474;51.660;5.824;2023-02-15T15:29:00;27.3;;;16.4;;
56593;SDS011;42474;51.660;5.824;2023-02-15T15:33:50;27.7;;;16.5;;
56593;SDS011;42474;51.660;5.824;2023-02-15T15:41:19;28.6;;;15.4;;
56593;SDS011;42474;51.660;5.824;2023-02-15T15:48:15;24.4;;;14.4;;
56593;SDS011;42474;51.660;5.824;2023-02-15T15:48:46;25.9;;;14.6;;
56593;SDS011;42474;51.660;5.824;2023-02-15T15:53:20;28.2;;;14.4;;
56593;SDS011;42474;51.660;5.824;2023-02-15T15:58:18;30.8;;;14.2;;
56593;SDS011;42474;51.660;5.824;2023-02-15T16:03:20;26.2;;;13.9;;
56593;SDS011;42474;51.660;5.824;2023-02-15T16:08:25;26.3;;;14.2;;
56593;SDS011;42474;51.660;5.824;2023-02-15T16:13:18;24.8;;;13.4;;
56593;SDS011;42474;51.660;5.824;2023-02-15T16:18:19;25.6;;;14.6;;
56593;SDS011;42474;51.660;5.824;2023-02-15T16:23:21;25.4;;;13.8;;
56593;SDS011;42474;51.660;5.824;2023-02-15T16:28:18;26.5;;;14.3;;
56593;SDS011;42474;51.660;5.824;2023-02-15T16:33:18;25.2;;;14.2;;
56593;SDS011;42474;51.660;5.824;2023-02-15T16:38:18;27.9;;;15.7;;
56593;SDS011;42474;51.660;5.824;2023-02-15T16:43:23;25.6;;;15.2;;
56593;SDS011;42474;51.660;5.824;2023-02-15T16:48:25;27.2;;;16.0;;
56593;SDS011;42474;51.660;5.824;2023-02-15T16:53:24;25.4;;;15.2;;
56593;SDS011;42474;51.660;5.824;2023-02-15T16:58:27;29.6;;;15.8;;
56593;SDS011;42474;51.660;5.824;2023-02-15T17:03:23;28.4;;;16.5;;
56593;SDS011;42474;51.660;5.824;2023-02-15T17:08:24;30.0;;;16.7;;
56593;SDS011;42474;51.660;5.824;2023-02-15T17:13:18;30.8;;;17.7;;
56593;SDS011;42474;51.660;5.824;2023-02-15T17:18:21;28.2;;;16.6;;
56593;SDS011;42474;51.660;5.824;2023-02-15T17:23:21;28.8;;;17.0;;
56593;SDS011;42474;51.660;5.824;2023-02-15T17:28:22;30.4;;;17.7;;
56593;SDS011;42474;51.660;5.824;2023-02-15T17:38:20;27.8;;;17.6;;
56593;SDS011;42474;51.660;5.824;2023-02-15T17:43:18;34.8;;;17.4;;
56593;SDS011;42474;51.660;5.824;2023-02-15T17:48:25;33.4;;;17.7;;
56593;SDS011;42474;51.660;5.824;2023-02-15T17:53:18;32.1;;;18.7;;
56593;SDS011;42474;51.660;5.824;2023-02-15T17:58:19;33.7;;;19.2;;
56593;SDS011;42474;51.660;5.824;2023-02-15T18:03:18;32.0;;;19.0;;
56593;SDS011;42474;51.660;5.824;2023-02-15T18:08:20;31.2;;;17.5;;
56593;SDS011;42474;51.660;5.824;2023-02-15T18:13:18;28.8;;;17.6;;
56593;SDS011;42474;51.660;5.824;2023-02-15T18:18:18;27.8;;;17.2;;
56593;SDS011;42474;51.660;5.824;2023-02-15T18:23:18;27.6;;;17.4;;
56593;SDS011;42474;51.660;5.824;2023-02-15T18:28:18;32.1;;;17.4;;
56593;SDS011;42474;51.660;5.824;2023-02-15T18:33:33;28.7;;;17.1;;
56593;SDS011;42474;51.660;5.824;2023-02-15T18:38:18;28.2;;;16.7;;
56593;SDS011;42474;51.660;5.824;2023-02-15T18:43:18;29.5;;;17.4;;
56593;SDS011;42474;51.660;5.824;2023-02-15T18:48:18;30.3;;;17.2;;
56593;SDS011;42474;51.660;5.824;2023-02-15T18:53:19;33.5;;;18.1;;
56593;SDS011;42474;51.660;5.824;2023-02-15T18:58:19;35.3;;;19.1;;
56593;SDS011;42474;51.660;5.824;2023-02-15T19:03:18;31.5;;;18.9;;
56593;SDS011;42474;51.660;5.824;2023-02-15T19:08:21;35.2;;;19.1;;
56593;SDS011;42474;51.660;5.824;2023-02-15T19:13:18;33.1;;;18.6;;
56593;SDS011;42474;51.660;5.824;2023-02-15T19:18:18;35.0;;;19.0;;
56593;SDS011;42474;51.660;5.824;2023-02-15T19:23:20;33.8;;;19.3;;
56593;SDS011;42474;51.660;5.824;2023-02-15T19:28:20;35.4;;;19.7;;
56593;SDS011;42474;51.660;5.824;2023-02-15T19:33:19;33.9;;;20.3;;
56593;SDS011;42474;51.660;5.824;2023-02-15T19:38:21;34.8;;;20.4;;
56593;SDS011;42474;51.660;5.824;2023-02-15T19:43:20;36.1;;;20.3;;
56593;SDS011;42474;51.660;5.824;2023-02-15T19:48:18;37.2;;;20.7;;
56593;SDS011;42474;51.660;5.824;2023-02-15T19:53:20;35.8;;;20.0;;
56593;SDS011;42474;51.660;5.824;2023-02-15T19:58:19;35.8;;;20.5;;
56593;SDS011;42474;51.660;5.824;2023-02-15T20:03:18;35.3;;;21.2;;
56593;SDS011;42474;51.660;5.824;2023-02-15T20:08:21;35.5;;;21.1;;
56593;SDS011;42474;51.660;5.824;2023-02-15T20:13:19;39.6;;;22.0;;
56593;SDS011;42474;51.660;5.824;2023-02-15T20:18:18;39.7;;;22.8;;
56593;SDS011;42474;51.660;5.824;2023-02-15T20:23:24;37.9;;;22.7;;
56593;SDS011;42474;51.660;5.824;2023-02-15T20:28:20;33.4;;;20.9;;
56593;SDS011;42474;51.660;5.824;2023-02-15T20:33:19;36.4;;;21.2;;
56593;SDS011;42474;51.660;5.824;2023-02-15T20:38:19;38.1;;;21.1;;
56593;SDS011;42474;51.660;5.824;2023-02-15T20:43:18;37.4;;;21.8;;
56593;SDS011;42474;51.660;5.824;2023-02-15T20:48:19;35.9;;;21.9;;
56593;SDS011;42474;51.660;5.824;2023-02-15T20:53:19;40.0;;;22.2;;
56593;SDS011;42474;51.660;5.824;2023-02-15T20:58:27;36.7;;;22.4;;
56593;SDS011;42474;51.660;5.824;2023-02-15T21:03:23;40.2;;;22.7;;
56593;SDS011;42474;51.660;5.824;2023-02-15T21:08:20;46.5;;;23.0;;
56593;SDS011;42474;51.660;5.824;2023-02-15T21:13:19;38.5;;;22.4;;
56593;SDS011;42474;51.660;5.824;2023-02-15T21:18:21;41.9;;;23.8;;
56593;SDS011;42474;51.660;5.824;2023-02-15T21:23:19;41.3;;;22.9;;
56593;SDS011;42474;51.660;5.824;2023-02-15T21:28:22;38.0;;;22.9;;
56593;SDS011;42474;51.660;5.824;2023-02-15T21:33:19;38.4;;;23.1;;
56593;SDS011;42474;51.660;5.824;2023-02-15T21:38:23;38.0;;;22.4;;
56593;SDS011;42474;51.660;5.824;2023-02-15T21:43:20;42.3;;;24.0;;
56593;SDS011;42474;51.660;5.824;2023-02-15T21:48:18;40.3;;;23.6;;
56593;SDS011;42474;51.660;5.824;2023-02-15T21:53:19;43.0;;;23.9;;
56593;SDS011;42474;51.660;5.824;2023-02-15T21:58:19;43.3;;;24.6;;
56593;SDS011;42474;51.660;5.824;2023-02-15T22:03:18;40.3;;;24.0;;
56593;SDS011;42474;51.660;5.824;2023-02-15T22:08:19;42.1;;;23.4;;
56593;SDS011;42474;51.660;5.824;2023-02-15T22:13:24;40.9;;;23.7;;
56593;SDS011;42474;51.660;5.824;2023-02-15T22:18:19;40.0;;;23.3;;
56593;SDS011;42474;51.660;5.824;2023-02-15T22:23:19;38.3;;;23.2;;
56593;SDS011;42474;51.660;5.824;2023-02-15T22:28:19;41.8;;;23.6;;
56593;SDS011;42474;51.660;5.824;2023-02-15T22:33:19;40.9;;;22.8;;
56593;SDS011;42474;51.660;5.824;2023-02-15T22:38:18;38.7;;;23.6;;
56593;SDS011;42474;51.660;5.824;2023-02-15T22:43:20;39.8;;;23.3;;
56593;SDS011;42474;51.660;5.824;2023-02-15T22:48:20;40.7;;;23.2;;
56593;SDS011;42474;51.660;5.824;2023-02-15T22:53:19;40.6;;;23.3;;
56593;SDS011;42474;51.660;5.824;2023-02-15T22:58:24;39.8;;;24.0;;
56593;SDS011;42474;51.660;5.824;2023-02-15T23:03:19;40.4;;;24.2;;
56593;SDS011;42474;51.660;5.824;2023-02-15T23:08:19;42.1;;;24.2;;
56593;SDS011;42474;51.660;5.824;2023-02-15T23:13:20;40.5;;;23.6;;
56593;SDS011;42474;51.660;5.824;2023-02-15T23:18:25;38.9;;;23.2;;
56593;SDS011;42474;51.660;5.824;2023-02-15T23:23:20;41.7;;;23.8;;
56593;SDS011;42474;51.660;5.824;2023-02-15T23:28:22;44.0;;;24.0;;
56593;SDS011;42474;51.660;5.824;2023-02-15T23:33:20;43.8;;;24.2;;
56593;SDS011;42474;51.660;5.824;2023-02-15T23:38:19;41.9;;;23.4;;
56593;SDS011;42474;51.660;5.824;2023-02-15T23:43:21;41.2;;;24.3;;
56593;SDS011;42474;51.660;5.824;2023-02-15T23:48:20;47.5;;;24.0;;
56593;SDS011;42474;51.660;5.824;2023-02-15T23:53:19;41.9;;;24.4;;
56593;SDS011;42474;51.660;5.824;2023-02-15T23:58:21;41.6;;;24.0;;
